Time;durP1;ratioP1;P1;durP2;ratioP2;P2;SDS_P1;SDS_P2;PMS_P1;PMS_P2;Temp;Humidity;BMP_temperature;BMP_pressure;BME280_temperature;BME280_humidity;BME280_pressure;Samples;Min_cycle;Max_cycle;Signal;HPM_P1;HPM_P2
2022/04/27 00:00:36;;;;;;;;;17.25;15.50;;;;;12.29;49.10;101605.84;5112080;27;45578;-83
2022/04/27 00:03:03;;;;;;;;;16.00;15.25;;;;;12.32;49.23;101615.63;5112334;27;45708;-83
2022/04/27 00:05:29;;;;;;;;;18.75;18.75;;;;;12.34;49.15;101621.84;5093262;27;48276;-84
2022/04/27 00:07:55;;;;;;;;;17.00;15.50;;;;;12.27;49.60;101618.06;5111677;27;46052;-83
2022/04/27 00:10:21;;;;;;;;;16.00;15.50;;;;;11.94;49.36;101564.84;5112435;27;45542;-83
2022/04/27 00:12:46;;;;;;;;;17.75;17.75;;;;;12.08;49.56;101589.13;5093469;27;45751;-83
2022/04/27 00:15:13;;;;;;;;;15.00;15.00;;;;;11.87;49.71;101557.50;5112071;27;46332;-83
2022/04/27 00:17:39;;;;;;;;;15.00;15.00;;;;;12.05;49.76;101603.06;5111569;27;45864;-83
2022/04/27 00:20:07;;;;;;;;;19.25;17.50;;;;;12.09;49.96;101612.91;5101917;27;45822;-83
2022/04/27 00:22:33;;;;;;;;;15.00;14.75;;;;;12.22;50.21;101624.88;5072447;27;45502;-83
2022/04/27 00:25:03;;;;;;;;;16.50;16.50;;;;;12.21;50.00;101633.59;5072357;27;46843;-83
2022/04/27 00:27:29;;;;;;;;;16.00;15.75;;;;;11.91;50.12;101587.50;5073153;27;46185;-83
2022/04/27 00:29:55;;;;;;;;;14.75;14.50;;;;;11.92;50.00;101584.97;5090422;27;45374;-83
2022/04/27 00:32:21;;;;;;;;;16.50;16.00;;;;;11.88;50.35;101581.28;5073081;27;45536;-83
2022/04/27 00:34:46;;;;;;;;;17.33;17.00;;;;;11.76;49.99;101562.28;5099745;27;45558;-83
2022/04/27 00:37:11;;;;;;;;;17.50;16.75;;;;;11.88;50.10;101594.47;5112186;27;45494;-83
2022/04/27 00:39:37;;;;;;;;;15.67;15.67;;;;;11.70;50.39;101563.75;5111032;27;45367;-83
2022/04/27 00:42:16;;;;;;;;;17.75;16.00;;;;;11.76;50.34;101574.56;5111451;27;45770;-83
2022/04/27 00:44:43;;;;;;;;;18.25;16.50;;;;;11.84;50.47;101603.06;5111153;27;46421;-83
2022/04/27 00:47:12;;;;;;;;;18.75;17.50;;;;;11.86;50.52;101598.75;5109127;27;46019;-83
2022/04/27 00:49:41;;;;;;;;;18.00;16.50;;;;;11.99;50.65;101626.53;5101976;27;45419;-83
2022/04/27 00:52:12;;;;;;;;;16.00;16.00;;;;;11.84;50.54;101599.53;5090853;27;45436;-83
2022/04/27 00:54:38;;;;;;;;;16.75;15.75;;;;;11.77;50.65;101582.53;5072061;27;46197;-83
2022/04/27 00:57:04;;;;;;;;;18.00;17.25;;;;;11.65;50.61;101570.56;5091281;27;45595;-83
2022/04/27 00:59:29;;;;;;;;;15.50;14.75;;;;;11.72;50.56;101588.41;5072138;27;45793;-84
2022/04/27 01:01:54;;;;;;;;;16.75;15.25;;;;;11.63;50.85;101568.78;5098093;27;45486;-83
2022/04/27 01:04:20;;;;;;;;;18.33;17.67;;;;;11.67;50.73;101582.94;5089887;27;48387;-83
2022/04/27 01:06:45;;;;;;;;;18.67;17.67;;;;;11.58;50.95;101572.03;5090577;27;45355;-83
2022/04/27 01:09:12;;;;;;;;;19.00;18.50;;;;;11.57;50.82;101568.47;5090299;27;45377;-82
2022/04/27 01:11:38;;;;;;;;;20.75;17.00;;;;;11.27;50.55;101531.19;5089843;27;45549;-83
2022/04/27 01:14:04;;;;;;;;;15.75;14.50;;;;;11.66;50.85;101593.41;5090357;27;46279;-83
2022/04/27 01:16:29;;;;;;;;;17.25;15.50;;;;;11.76;50.91;101614.94;5090105;27;45617;-83
2022/04/27 01:18:55;;;;;;;;;16.25;16.25;;;;;11.40;50.98;101560.69;5090784;27;45248;-83
2022/04/27 01:21:22;;;;;;;;;17.00;17.00;;;;;11.50;50.95;101579.59;5092048;27;45632;-83
2022/04/27 01:23:47;;;;;;;;;23.50;19.25;;;;;11.44;51.07;101567.91;5089660;27;46285;-83
2022/04/27 01:26:12;;;;;;;;;18.25;17.25;;;;;11.51;51.13;101572.59;5072315;27;45843;-84
2022/04/27 01:28:38;;;;;;;;;16.50;16.25;;;;;11.35;51.20;101558.75;5090613;27;45420;-83
2022/04/27 01:31:10;;;;;;;;;18.25;17.25;;;;;11.30;51.10;101551.50;5075415;27;45809;-83
2022/04/27 01:33:36;;;;;;;;;17.50;16.75;;;;;11.36;51.02;101563.19;5110386;27;45469;-83
2022/04/27 01:36:03;;;;;;;;;16.25;16.25;;;;;11.43;51.43;101576.59;5074555;27;45837;-83
2022/04/27 01:38:35;;;;;;;;;22.75;20.00;;;;;11.58;51.28;101596.63;5071406;27;45742;-84
2022/04/27 01:41:00;;;;;;;;;19.50;17.25;;;;;11.48;51.20;101588.28;5071308;27;45470;-83
2022/04/27 01:43:25;;;;;;;;;16.75;16.75;;;;;11.32;51.39;101570.88;5090399;27;46545;-83
2022/04/27 01:45:51;;;;;;;;;18.75;16.50;;;;;11.14;51.51;101539.38;5089803;27;45716;-83
2022/04/27 01:48:17;;;;;;;;;19.50;18.00;;;;;11.19;51.29;101558.91;5095840;27;45641;-82
2022/04/27 01:50:42;;;;;;;;;16.00;14.75;;;;;11.12;51.67;101551.56;5111331;27;45318;-83
2022/04/27 01:55:52;;;;;;;;;17.00;15.50;;;;;11.16;51.50;101564.03;5110310;27;45461;-83
2022/04/27 01:58:18;;;;;;;;;19.25;18.00;;;;;11.12;51.45;101554.19;5092824;27;45412;-83
2022/04/27 02:00:47;;;;;;;;;21.00;20.50;;;;;11.42;51.46;101609.03;5110421;27;45802;-83
2022/04/27 02:03:17;;;;;;;;;17.75;16.75;;;;;11.14;51.72;101570.06;5107720;27;46583;-84
2022/04/27 02:05:44;;;;;;;;;21.25;20.25;;;;;11.40;51.73;101616.88;5074180;27;45931;-82
2022/04/27 02:08:09;;;;;;;;;18.50;17.25;;;;;11.13;51.62;101565.59;5087349;27;45458;-84
2022/04/27 02:10:35;;;;;;;;;21.75;20.75;;;;;10.96;51.62;101542.06;5071761;27;45590;-83
2022/04/27 02:13:11;;;;;;;;;18.25;16.00;;;;;10.82;51.73;101517.75;5090416;27;46029;-83
2022/04/27 02:15:37;;;;;;;;;19.50;18.50;;;;;11.21;51.85;101596.69;5089554;27;45439;-83
2022/04/27 02:18:03;;;;;;;;;22.25;18.75;;;;;11.31;52.03;101605.91;5089394;27;45554;-84
2022/04/27 02:20:29;;;;;;;;;18.00;17.25;;;;;11.30;51.92;101610.28;5103787;27;45461;-83
2022/04/27 02:22:55;;;;;;;;;21.25;20.00;;;;;10.99;51.96;101565.00;5090897;27;47258;-83
2022/04/27 02:25:24;;;;;;;;;18.75;18.25;;;;;11.27;52.00;101611.88;5110736;27;45743;-82
2022/04/27 02:27:50;;;;;;;;;21.50;19.00;;;;;11.24;52.01;101610.00;5091918;27;45785;-83
2022/04/27 02:30:18;;;;;;;;;21.25;20.00;;;;;11.15;52.29;101598.16;5092260;27;45691;-83
2022/04/27 02:32:45;;;;;;;;;20.50;18.00;;;;;10.94;52.07;101572.69;5091040;27;48074;-84
2022/04/27 02:35:11;;;;;;;;;21.75;18.75;;;;;11.01;52.33;101573.84;5099634;27;45960;-83
2022/04/27 02:37:37;;;;;;;;;21.50;19.25;;;;;10.80;52.26;101544.84;5089599;27;45605;-83
2022/04/27 02:40:04;;;;;;;;;21.50;20.50;;;;;11.19;52.13;101614.16;5087746;27;45407;-83
2022/04/27 02:42:30;;;;;;;;;19.25;15.50;;;;;11.16;52.38;101616.66;5090740;27;48165;-83
2022/04/27 02:44:56;;;;;;;;;18.25;18.25;;;;;10.86;52.42;101568.78;5109734;27;45805;-84
2022/04/27 02:47:22;;;;;;;;;21.50;18.50;;;;;10.87;52.71;101575.84;5091380;27;45698;-83
2022/04/27 02:52:51;;;;;;;;;23.00;21.00;;;;;11.11;52.71;101623.44;5025182;28;45395;-83
2022/04/27 02:55:16;;;;;;;;;22.25;21.50;;;;;10.84;52.71;101566.09;5029157;28;45433;-83
2022/04/27 02:57:42;;;;;;;;;20.75;19.25;;;;;10.82;52.74;101565.09;5051239;27;45582;-83
2022/04/27 03:00:08;;;;;;;;;25.50;22.25;;;;;10.93;52.99;101572.59;5092981;27;45706;-83
2022/04/27 03:02:33;;;;;;;;;23.25;21.25;;;;;11.01;52.80;101595.78;5073567;27;47805;-83
2022/04/27 03:05:00;;;;;;;;;23.25;21.75;;;;;10.63;52.97;101528.25;5102686;27;45644;-82
2022/04/27 03:07:28;;;;;;;;;23.50;22.50;;;;;10.74;53.26;101557.72;5113549;27;45494;-82
2022/04/27 03:09:53;;;;;;;;;24.00;23.00;;;;;10.96;53.29;101580.63;5094264;27;45393;-83
2022/04/27 03:12:19;;;;;;;;;23.75;20.50;;;;;10.93;53.38;101585.72;5094409;27;47253;-83
2022/04/27 03:14:44;;;;;;;;;24.00;22.50;;;;;10.66;53.16;101541.56;5093913;27;45698;-82
2022/04/27 03:17:10;;;;;;;;;22.75;21.50;;;;;10.61;52.99;101536.91;5094727;27;45544;-83
2022/04/27 03:19:36;;;;;;;;;21.75;20.75;;;;;10.82;53.37;101578.25;5094555;27;45524;-83
2022/04/27 03:22:01;;;;;;;;;23.25;21.00;;;;;10.67;53.47;101561.75;5093995;27;47413;-83
2022/04/27 03:24:27;;;;;;;;;21.00;20.00;;;;;10.66;53.92;101554.69;5112586;27;45701;-83
2022/04/27 03:26:52;;;;;;;;;25.50;22.50;;;;;10.33;53.51;101496.19;5094307;27;45732;-83
2022/04/27 03:29:18;;;;;;;;;26.75;23.75;;;;;10.81;53.83;101593.97;5094360;27;45505;-83
2022/04/27 03:31:44;;;;;;;;;24.50;24.50;;;;;10.52;53.69;101529.50;5093762;27;46622;-83
2022/04/27 03:34:09;;;;;;;;;29.00;26.75;;;;;10.67;53.83;101566.13;5092681;27;45513;-83
2022/04/27 03:36:35;;;;;;;;;24.75;21.25;;;;;10.81;53.93;101586.97;5091765;27;45400;-83
2022/04/27 03:39:00;;;;;;;;;24.50;23.75;;;;;10.35;54.17;101512.94;5097566;27;45516;-83
2022/04/27 03:41:28;;;;;;;;;29.00;24.25;;;;;10.50;53.97;101539.94;5093058;27;45531;-83
2022/04/27 03:43:54;;;;;;;;;24.75;22.75;;;;;10.54;53.90;101556.72;5073116;27;45763;-83
2022/04/27 03:46:20;;;;;;;;;24.00;22.00;;;;;10.40;53.93;101526.28;5092532;27;45839;-82
2022/04/27 03:48:46;;;;;;;;;26.50;23.75;;;;;10.37;54.13;101511.28;5091521;27;45889;-83
2022/04/27 03:51:12;;;;;;;;;24.25;22.50;;;;;10.45;54.00;101538.81;5092379;27;45862;-83
2022/04/27 03:53:37;;;;;;;;;26.00;24.00;;;;;10.03;54.32;101464.06;5091341;27;45288;-82
2022/04/27 03:56:03;;;;;;;;;25.00;24.75;;;;;10.09;54.43;101474.84;5091975;27;45417;-83
2022/04/27 03:58:29;;;;;;;;;27.50;22.25;;;;;10.50;54.39;101558.34;5073375;27;45724;-82
2022/04/27 04:00:54;;;;;;;;;29.00;24.50;;;;;10.46;54.28;101560.75;5091206;27;45463;-83
2022/04/27 04:03:20;;;;;;;;;30.00;27.00;;;;;10.03;54.52;101485.97;5091976;27;45503;-83
2022/04/27 04:05:45;;;;;;;;;24.75;22.75;;;;;10.28;54.76;101544.97;5072193;27;45378;-83
2022/04/27 04:08:11;;;;;;;;;33.25;30.25;;;;;10.14;54.57;101514.47;5091532;27;45579;-83
2022/04/27 04:10:36;;;;;;;;;28.75;26.50;;;;;10.18;54.65;101530.47;5073028;27;47536;-83
2022/04/27 04:13:02;;;;;;;;;30.25;29.00;;;;;10.13;55.01;101520.56;5072849;27;45868;-83
2022/04/27 04:15:28;;;;;;;;;27.50;25.50;;;;;10.27;54.95;101545.81;5091604;27;45834;-83
2022/04/27 04:17:54;;;;;;;;;28.50;28.25;;;;;10.20;54.72;101538.44;5072712;27;45919;-83
2022/04/27 04:20:19;;;;;;;;;32.25;29.25;;;;;10.54;54.90;101615.50;5091333;27;46861;-83
2022/04/27 04:22:47;;;;;;;;;26.25;24.00;;;;;10.53;55.31;101604.88;5072347;27;45471;-84
2022/04/27 04:30:42;;;;;;;;;28.25;27.50;;;;;10.33;55.05;101586.41;5094575;27;45730;-83
2022/04/27 04:33:08;;;;;;;;;27.75;25.50;;;;;10.07;55.37;101537.81;5113932;27;45452;-82
2022/04/27 04:35:35;;;;;;;;;25.00;23.75;;;;;10.45;55.25;101603.63;5094233;27;45748;-83
2022/04/27 04:38:01;;;;;;;;;27.00;25.50;;;;;10.44;55.76;101605.34;5112025;27;45459;-82
2022/04/27 04:40:27;;;;;;;;;30.00;28.25;;;;;10.43;55.68;101606.16;5101754;27;46719;-83
2022/04/27 04:42:52;;;;;;;;;28.75;27.50;;;;;10.20;55.64;101567.34;5100533;27;45536;-83
2022/04/27 04:45:19;;;;;;;;;29.25;28.25;;;;;9.91;55.59;101530.03;5114119;27;45372;-82
2022/04/27 04:47:44;;;;;;;;;32.50;28.00;;;;;10.02;55.74;101554.19;5121430;27;46013;-83
2022/04/27 04:50:11;;;;;;;;;26.75;25.50;;;;;9.85;55.81;101528.78;5100748;27;46920;-81
2022/04/27 04:52:37;;;;;;;;;26.75;22.75;;;;;10.40;55.74;101619.16;5101007;27;45480;-82
2022/04/27 04:55:03;;;;;;;;;26.50;24.50;;;;;10.38;55.86;101625.16;5117556;27;45576;-82
2022/04/27 04:57:29;;;;;;;;;30.25;28.00;;;;;10.11;56.12;101577.38;5096521;27;45687;-82
2022/04/27 04:59:55;;;;;;;;;34.25;29.25;;;;;10.05;56.16;101565.75;5099302;27;46056;-82
2022/04/27 05:02:20;;;;;;;;;30.00;29.00;;;;;9.93;56.20;101536.25;5099298;27;45897;-82
2022/04/27 05:04:46;;;;;;;;;35.50;32.00;;;;;10.41;56.16;101630.56;5097187;27;45498;-83
2022/04/27 05:07:11;;;;;;;;;34.00;30.50;;;;;9.94;55.88;101540.66;5074060;27;45707;-82
2022/04/27 05:09:37;;;;;;;;;26.25;26.25;;;;;10.33;55.85;101622.31;5088985;27;45794;-82
2022/04/27 05:12:04;;;;;;;;;34.75;31.00;;;;;10.12;56.33;101577.44;5109627;27;45656;-82
2022/04/27 05:14:30;;;;;;;;;30.00;28.25;;;;;10.45;56.20;101636.06;5095850;27;45702;-82
2022/04/27 05:16:56;;;;;;;;;29.25;27.75;;;;;9.77;56.10;101529.31;5114311;27;46098;-83
2022/04/27 05:19:22;;;;;;;;;32.00;29.50;;;;;10.02;56.41;101562.97;5095726;27;46851;-82
2022/04/27 05:21:48;;;;;;;;;33.25;30.25;;;;;10.21;56.23;101595.41;5097767;27;45794;-83
2022/04/27 05:24:14;;;;;;;;;25.50;22.00;;;;;10.17;56.24;101594.34;5116782;27;45503;-83
2022/04/27 05:26:39;;;;;;;;;34.00;31.50;;;;;10.22;56.28;101613.84;5104805;27;45409;-82
2022/04/27 05:44:53;;;;;;;;;37.25;33.50;;;;;10.43;57.05;101677.13;5132340;27;45346;-78
2022/04/27 05:47:19;;;;;;;;;30.00;28.25;;;;;10.47;56.74;101672.91;5098438;27;45098;-78
2022/04/27 05:49:44;;;;;;;;;37.50;33.25;;;;;10.19;56.87;101618.94;5082539;27;45187;-87
2022/04/27 05:52:10;;;;;;;;;37.25;31.75;;;;;10.52;56.97;101674.94;5059126;28;45103;-78
2022/04/27 05:54:35;;;;;;;;;37.50;34.25;;;;;10.55;56.79;101683.00;5060388;28;44974;-80
2022/04/27 05:57:01;;;;;;;;;41.50;36.25;;;;;10.58;56.61;101684.88;5061170;28;44906;-80
2022/04/27 05:59:29;;;;;;;;;37.00;34.00;;;;;10.60;57.01;101688.50;5063714;28;45409;-76
2022/04/27 06:01:54;;;;;;;;;39.50;34.50;;;;;10.63;56.95;101685.09;5062311;28;45275;-93
2022/04/27 06:04:20;;;;;;;;;35.75;29.50;;;;;10.66;56.71;101686.16;5064085;28;45220;-84
2022/04/27 06:06:45;;;;;;;;;40.50;35.00;;;;;10.55;56.80;101666.34;5088318;28;45079;-93
2022/04/27 06:09:11;;;;;;;;;39.25;35.50;;;;;10.69;56.45;101688.94;5088646;28;45394;-93
2022/04/27 06:11:36;;;;;;;;;37.75;34.25;;;;;10.66;56.77;101683.53;5088192;28;45185;-91
2022/04/27 06:14:02;;;;;;;;;37.50;34.25;;;;;10.76;56.85;101703.28;5088313;28;45660;-94
2022/04/27 06:16:27;;;;;;;;;29.25;27.75;;;;;10.80;56.66;101708.78;5079680;28;45251;-92
2022/04/27 06:18:53;;;;;;;;;40.25;35.50;;;;;10.82;56.70;101715.00;5088868;28;44996;-94
2022/04/27 06:21:18;;;;;;;;;33.00;30.75;;;;;10.79;56.81;101709.59;5089541;28;44974;-94
2022/04/27 06:23:44;;;;;;;;;35.00;31.75;;;;;10.87;56.84;101712.59;5086682;28;45426;-93
2022/04/27 06:26:09;;;;;;;;;40.25;36.00;;;;;10.91;56.83;101714.53;5089170;28;44870;-93
2022/04/27 06:28:35;;;;;;;;;37.00;33.75;;;;;10.84;56.81;101699.31;5089581;28;45154;-90
2022/04/27 06:31:01;;;;;;;;;42.50;36.00;;;;;10.92;57.00;101704.91;5088912;27;44933;-94
2022/04/27 06:33:27;;;;;;;;;35.75;33.75;;;;;10.93;56.81;101714.63;5073110;27;45641;-93
2022/04/27 06:35:53;;;;;;;;;38.00;34.50;;;;;11.06;56.81;101724.91;5062797;28;45185;-94
2022/04/27 06:38:19;;;;;;;;;35.50;33.50;;;;;10.98;56.31;101708.75;5089399;27;45184;-89
2022/04/27 06:40:44;;;;;;;;;46.00;37.00;;;;;11.03;56.65;101715.16;5102925;27;45118;-93
2022/04/27 06:43:10;;;;;;;;;44.00;35.75;;;;;11.10;56.84;101719.88;5109344;27;45312;-90
2022/04/27 06:45:36;;;;;;;;;43.50;36.75;;;;;11.15;56.53;101714.84;5113419;27;45254;-82
2022/04/27 06:48:05;;;;;;;;;41.50;35.00;;;;;11.20;56.22;101717.69;5110244;27;45283;-95
2022/04/27 06:50:31;;;;;;;;;43.25;36.75;;;;;11.29;56.38;101720.75;5104549;27;45428;-90
2022/04/27 06:52:59;;;;;;;;;38.25;35.00;;;;;11.23;56.12;101716.09;5109162;27;45357;-88
2022/04/27 06:55:26;;;;;;;;;39.25;35.75;;;;;11.26;56.59;101721.50;5108265;27;45407;-95
2022/04/27 06:57:52;;;;;;;;;39.25;36.00;;;;;11.34;56.02;101729.78;5104330;27;45500;-92
2022/04/27 07:00:17;;;;;;;;;38.75;36.50;;;;;11.37;56.52;101728.16;5108314;27;45703;-94
2022/04/27 07:02:43;;;;;;;;;41.00;36.50;;;;;11.43;56.37;101739.81;5103601;27;45054;-94
2022/04/27 07:05:12;;;;;;;;;39.00;35.75;;;;;11.39;56.24;101719.47;5095294;28;44967;-93
2022/04/27 07:07:38;;;;;;;;;40.50;36.00;;;;;11.43;56.50;101724.94;5093786;28;45208;-94
2022/04/27 07:10:04;;;;;;;;;39.25;34.00;;;;;11.50;56.09;101724.38;5095349;27;44983;-94
2022/04/27 07:12:29;;;;;;;;;37.50;34.50;;;;;11.60;56.47;101739.78;5095510;28;45580;-92
2022/04/27 07:14:56;;;;;;;;;41.50;36.50;;;;;11.65;56.31;101741.72;5095401;28;44847;-91
2022/04/27 07:17:22;;;;;;;;;44.25;37.00;;;;;11.69;56.08;101747.19;5095286;27;45131;-93
2022/04/27 07:19:47;;;;;;;;;44.25;37.00;;;;;11.66;56.22;101736.50;5092769;28;45205;-94
2022/04/27 07:22:13;;;;;;;;;45.50;37.75;;;;;11.73;56.15;101743.88;5092393;27;45069;-87
2022/04/27 07:24:38;;;;;;;;;40.50;35.75;;;;;11.81;55.86;101745.13;5095185;27;45059;-90
2022/04/27 07:27:05;;;;;;;;;43.00;37.25;;;;;11.81;56.03;101738.94;5095017;27;44955;-93
2022/04/27 07:29:31;;;;;;;;;49.25;37.25;;;;;11.87;56.17;101742.81;5088398;27;45207;-93
2022/04/27 07:31:59;;;;;;;;;47.50;38.75;;;;;11.87;55.70;101736.63;5112770;27;45710;-94
2022/04/27 07:34:25;;;;;;;;;42.00;36.00;;;;;11.87;55.83;101732.28;5098668;27;45146;-93
2022/04/27 07:36:51;;;;;;;;;39.50;35.75;;;;;11.94;56.02;101743.97;5090902;27;45269;-93
2022/04/27 07:39:16;;;;;;;;;26.50;20.75;;;;;12.00;55.74;101738.09;5093682;28;45490;-93
2022/04/27 07:41:45;;;;;;;;;49.75;39.00;;;;;11.97;55.97;101732.66;5090243;28;45552;-95
2022/04/27 07:44:11;;;;;;;;;49.25;39.00;;;;;12.06;55.93;101739.25;5090861;28;45228;-95
2022/04/27 07:46:36;;;;;;;;;42.75;36.25;;;;;12.07;55.70;101734.91;5107576;27;44884;-94
2022/04/27 07:49:02;;;;;;;;;46.75;39.25;;;;;12.13;55.63;101740.44;5114209;27;45213;-93
2022/04/27 07:51:27;;;;;;;;;48.50;36.75;;;;;12.18;55.43;101744.19;5112628;27;45415;-92
2022/04/27 07:53:53;;;;;;;;;39.75;34.75;;;;;12.16;55.53;101731.75;5112912;27;45054;-93
2022/04/27 07:56:18;;;;;;;;;46.75;40.00;;;;;12.23;55.63;101740.00;5111050;27;44845;-75
2022/04/27 07:58:44;;;;;;;;;37.50;34.00;;;;;12.28;55.50;101745.47;5098452;27;45105;-76
2022/04/27 08:01:09;;;;;;;;;48.75;38.50;;;;;12.20;55.76;101731.94;5092430;28;45719;-77
2022/04/27 08:03:35;;;;;;;;;39.75;33.75;;;;;12.34;55.43;101740.47;5087933;27;45460;-75
2022/04/27 08:06:04;;;;;;;;;52.00;42.75;;;;;12.33;55.65;101747.47;5093037;27;45170;-77
2022/04/27 08:08:33;;;;;;;;;44.25;36.25;;;;;12.41;55.38;101747.78;5088998;27;45082;-82
2022/04/27 08:10:58;;;;;;;;;43.50;36.50;;;;;12.45;55.67;101747.09;5076396;27;46199;-91
2022/04/27 08:13:24;;;;;;;;;41.50;36.00;;;;;12.40;55.30;101733.72;5091634;28;45183;-94
2022/04/27 08:15:50;;;;;;;;;47.00;38.50;;;;;12.56;55.34;101748.47;5091097;28;45037;-94
2022/04/27 08:18:15;;;;;;;;;46.00;38.75;;;;;12.62;55.33;101754.00;5094237;27;45022;-76
2022/04/27 08:23:31;;;;;;;;;37.75;34.50;;;;;12.71;55.25;101757.84;5093770;27;45213;-89
2022/04/27 08:25:59;;;;;;;;;47.75;38.25;;;;;12.70;55.25;101748.13;5086542;27;44991;-94
2022/04/27 08:28:27;;;;;;;;;49.75;40.50;;;;;12.67;55.20;101734.84;5113561;27;45204;-94
2022/04/27 08:30:54;;;;;;;;;46.00;38.75;;;;;12.88;55.06;101760.34;5100351;27;45746;-93
2022/04/27 08:33:20;;;;;;;;;43.75;38.00;;;;;12.89;55.01;101751.59;5091953;28;45658;-95
2022/04/27 08:35:46;;;;;;;;;44.75;38.00;;;;;13.01;54.78;101763.53;5090177;28;45456;-86
2022/04/27 08:38:13;;;;;;;;;53.50;42.25;;;;;13.02;54.75;101757.41;5091675;27;45176;-93
2022/04/27 08:40:40;;;;;;;;;45.75;39.00;;;;;13.11;54.68;101766.59;5090111;28;45551;-92
2022/04/27 08:43:09;;;;;;;;;48.00;39.25;;;;;13.10;54.30;101758.59;5105131;27;45423;-93
2022/04/27 08:45:36;;;;;;;;;42.25;38.00;;;;;13.17;54.70;101763.28;5114236;27;44963;-87
2022/04/27 08:48:01;;;;;;;;;47.75;39.25;;;;;13.18;54.31;101751.88;5112296;27;45185;-93
2022/04/27 08:50:28;;;;;;;;;48.25;39.00;;;;;13.30;54.38;101765.63;5112344;27;45226;-94
2022/04/27 08:52:55;;;;;;;;;42.50;35.75;;;;;13.34;54.25;101764.00;5110899;27;45185;-93
2022/04/27 08:55:21;;;;;;;;;47.25;37.50;;;;;13.39;53.93;101765.97;5100049;27;45585;-80
2022/04/27 08:57:50;;;;;;;;;40.75;37.00;;;;;13.38;54.25;101753.59;5094163;28;45123;-94
2022/04/27 09:00:18;;;;;;;;;46.50;37.25;;;;;13.52;54.55;101762.06;5093141;27;45043;-93
2022/04/27 09:02:45;;;;;;;;;48.00;39.50;;;;;13.53;54.34;101747.13;5093893;28;45585;-95
2022/04/27 09:05:21;;;;;;;;;46.00;38.75;;;;;13.66;53.86;101759.97;5093081;28;45192;-91
2022/04/27 09:07:51;;;;;;;;;46.00;36.00;;;;;13.78;53.75;101768.34;5091740;27;45086;-95
2022/04/27 09:10:19;;;;;;;;;44.25;37.25;;;;;13.84;53.64;101763.31;5093175;27;45823;-94
2022/04/27 09:12:53;;;;;;;;;38.50;35.25;;;;;13.89;53.69;101760.81;5093248;28;45002;-94
2022/04/27 09:15:22;;;;;;;;;44.75;35.25;;;;;13.94;53.58;101767.22;5093778;27;45249;-95
2022/04/27 09:20:50;;;;;;;;;40.25;35.00;;;;;14.10;53.20;101760.72;5093487;27;45804;-96
2022/04/27 09:23:22;;;;;;;;;43.00;36.75;;;;;14.15;53.00;101760.06;5091657;27;45146;-87
2022/04/27 09:25:53;;;;;;;;;43.50;35.75;;;;;14.12;53.23;101743.19;5092334;28;45096;-91
2022/04/27 09:28:22;;;;;;;;;36.25;34.00;;;;;14.29;53.39;101768.50;5072792;28;44995;-93
2022/04/27 09:30:49;;;;;;;;;40.25;35.00;;;;;14.35;53.25;101762.53;5071081;28;46839;-92
2022/04/27 09:33:35;;;;;;;;;46.00;37.25;;;;;14.42;53.07;101756.59;5070241;28;45025;-92
2022/04/27 09:36:17;;;;;;;;;49.75;41.00;;;;;14.42;52.71;101754.84;5072794;28;44999;-89
2022/04/27 09:38:43;;;;;;;;;43.00;36.00;;;;;14.37;52.94;101737.00;5081577;27;44883;-91
2022/04/27 09:41:09;;;;;;;;;42.50;34.75;;;;;14.57;52.97;101762.44;5112032;27;45194;-92
2022/04/27 09:43:45;;;;;;;;;48.50;38.25;;;;;14.62;52.67;101752.00;5110307;27;45069;-92
2022/04/27 09:46:25;;;;;;;;;46.50;38.25;;;;;14.65;52.73;101741.53;5113238;27;44962;-92
2022/04/27 09:49:02;;;;;;;;;46.00;39.25;;;;;14.78;52.76;101748.13;5111074;27;45383;-92
2022/04/27 09:51:28;;;;;;;;;44.75;37.50;;;;;14.80;52.77;101746.47;5102303;27;45090;-92
2022/04/27 09:53:54;;;;;;;;;48.75;39.25;;;;;14.89;52.58;101739.72;5092735;28;45304;-93
2022/04/27 09:56:24;;;;;;;;;43.75;37.25;;;;;14.99;52.51;101747.97;5092487;28;44940;-92
2022/04/27 09:58:53;;;;;;;;;44.50;38.00;;;;;15.04;52.61;101736.66;5091964;28;45187;-91
2022/04/27 10:01:19;;;;;;;;;47.25;39.00;;;;;15.15;52.00;101751.16;5092101;28;45139;-91
2022/04/27 10:03:48;;;;;;;;;47.00;38.25;;;;;15.20;52.03;101746.00;5092080;28;45158;-92
2022/04/27 10:06:15;;;;;;;;;45.50;38.75;;;;;15.16;52.15;101723.81;5093317;27;44869;-88
2022/04/27 10:08:41;;;;;;;;;44.50;37.00;;;;;15.33;51.83;101739.34;5092367;27;45103;-91
2022/04/27 10:11:10;;;;;;;;;41.50;35.50;;;;;15.29;51.39;101719.81;5092807;27;45220;-92
2022/04/27 10:13:37;;;;;;;;;47.75;38.00;;;;;15.44;51.63;101733.53;5092503;28;45667;-93
2022/04/27 10:16:03;;;;;;;;;44.00;34.25;;;;;15.49;51.60;101725.72;5092821;28;45130;-92
2022/04/27 10:18:30;;;;;;;;;43.25;35.75;;;;;15.54;51.11;101718.81;5096593;27;45316;-84
2022/04/27 10:20:56;;;;;;;;;40.75;33.75;;;;;15.60;51.28;101707.47;5113017;27;45097;-92
2022/04/27 10:23:24;;;;;;;;;39.00;34.50;;;;;15.73;51.33;101712.31;5116244;27;45146;-90
2022/04/27 10:26:15;;;;;;;;;44.50;37.00;;;;;15.85;50.63;101719.72;5116982;27;45400;-93
2022/04/27 10:28:48;;;;;;;;;39.50;36.00;;;;;15.92;50.06;101717.31;5114971;27;44900;-92
2022/04/27 10:31:39;;;;;;;;;38.00;34.25;;;;;15.92;50.17;101708.47;5114191;27;45497;-92
2022/04/27 10:34:17;;;;;;;;;42.75;35.75;;;;;16.03;50.08;101706.09;5113077;27;45312;-93
2022/04/27 10:36:47;;;;;;;;;38.50;34.00;;;;;16.11;50.05;101707.22;5101357;27;45101;-88
2022/04/27 10:39:13;;;;;;;;;42.25;35.75;;;;;16.21;50.38;101693.34;5093979;27;45000;-93
2022/04/27 10:41:48;;;;;;;;;41.25;35.75;;;;;16.30;50.15;101692.66;5094240;27;45415;-88
2022/04/27 10:44:14;;;;;;;;;37.00;33.00;;;;;16.42;50.34;101691.25;5094316;28;45506;-91
2022/04/27 10:46:45;;;;;;;;;37.25;33.50;;;;;16.56;49.82;101690.72;5093141;28;45348;-90
2022/04/27 10:49:22;;;;;;;;;35.75;31.75;;;;;16.67;50.12;101690.09;5095435;27;44999;-89
2022/04/27 10:52:06;;;;;;;;;39.25;35.25;;;;;16.75;49.23;101691.25;5095499;28;45124;-93
2022/04/27 10:54:37;;;;;;;;;38.50;34.50;;;;;16.82;48.89;101688.72;5095223;28;45619;-92
2022/04/27 10:57:14;;;;;;;;;36.50;32.50;;;;;16.94;49.24;101684.59;5094612;28;45125;-92
2022/04/27 11:00:05;;;;;;;;;37.00;33.50;;;;;17.00;48.47;101667.94;5096127;28;45070;-85
2022/04/27 11:02:35;;;;;;;;;36.00;30.00;;;;;17.10;48.43;101691.19;5095888;28;46188;-90
2022/04/27 11:05:05;;;;;;;;;32.75;31.75;;;;;17.25;48.36;101685.31;5095570;28;45197;-93
2022/04/27 11:07:52;;;;;;;;;35.50;31.50;;;;;17.51;47.88;101678.78;5094750;28;45178;-92
2022/04/27 11:10:20;;;;;;;;;38.50;33.00;;;;;17.60;47.19;101675.44;5095613;28;45165;-93
2022/04/27 11:12:51;;;;;;;;;21.50;19.50;;;;;17.75;47.23;101670.47;5098183;27;45245;-89
2022/04/27 11:15:27;;;;;;;;;37.00;33.00;;;;;17.76;47.38;101672.25;5098476;27;45033;-91
2022/04/27 11:18:01;;;;;;;;;37.00;32.50;;;;;17.69;46.98;101646.38;5093101;28;45336;-92
2022/04/27 11:20:29;;;;;;;;;33.75;30.75;;;;;17.95;46.44;101654.91;5095637;28;44849;-92
2022/04/27 11:22:55;;;;;;;;;33.00;30.50;;;;;18.05;46.71;101654.19;5094238;27;45287;-95
2022/04/27 11:25:29;;;;;;;;;27.25;27.25;;;;;18.21;46.34;101651.81;5091948;28;45405;-94
2022/04/27 11:27:55;;;;;;;;;28.25;27.50;;;;;18.40;46.07;101653.94;5092732;28;45509;-94
2022/04/27 11:30:22;;;;;;;;;35.00;32.25;;;;;18.46;45.44;101656.69;5094700;27;45123;-94
2022/04/27 11:32:49;;;;;;;;;29.00;28.25;;;;;18.52;45.52;101658.53;5093383;28;45903;-94
2022/04/27 11:35:16;;;;;;;;;31.00;29.25;;;;;18.65;45.32;101649.91;5089546;27;45088;-94
2022/04/27 11:37:41;;;;;;;;;30.75;28.75;;;;;18.76;45.16;101639.44;5092584;27;45005;-96
2022/04/27 11:40:14;;;;;;;;;30.25;29.50;;;;;18.83;45.30;101644.00;5094084;28;45146;-95
2022/04/27 11:42:47;;;;;;;;;27.75;26.75;;;;;18.94;44.44;101646.81;5094425;28;45166;-94